Etusivu
METAR-TAF:

METAR-TAF

Lentoasemat :

Silver Bay Municipal Airport

Silver Bay, Minnesota, Yhdysvallat

Leveyspiiri: 47-12N, Pituuspiiri: 091-24W, korkeus merenpinnasta: 331 m

Tämänhetkinen sää

Tämä raportti tehtiin 16 minuuttia sitten, kello 18.35 UTC
Tuuli 12 kn idästä/koillisesta puuskistuen 16 kn:hen
Lämpötila 5°C
Kosteus 93%
Ilmanpaine 1015 hPa
Näkyvyys: 1.2 km
Pilvistä 200 ft:n korkeudessa
tihkusadetta

METAR: KBFW 241835Z AUTO 06012G16KT 3/4SM DZ OVC002 05/04 A2998 RMK AO2

Aika: 13:51 (18:51 UTC)


TAF: puuttuu

Säähavainnot ja -ennusteet yli 4000 lentoasemalta (METAR- ja TAF-raportit).

Käytössä olevat sääasemat on merkitty karttaan keltaisilla ja punaisilla pisteillä.

Aseta hiiri pisteen päälle nähdäksesi sääaseman nimen.

Klikkaa sitten nähdäksesi säähavainnot ja -ennusteet.

Kartan vaihtaminen: klikkaa mustalla rastilla varustettuja vihreitä pisteitä, niin voit zoomata sisään; viivalla varustettua vihreää pistettä, niin voit zoomata ulos tai vihreitä nuolia, niin pääset viereisille kartoille.


METAR-TAF: